sensor_id;sensor_type;location;lat;lon;timestamp;P1;durP1;ratioP1;P2;durP2;ratioP2
7985;SDS011;4038;42.612;23.066;2022-12-07T00:01:09;23.93;;;21.47;;
7985;SDS011;4038;42.612;23.066;2022-12-07T00:03:36;23.17;;;21.27;;
7985;SDS011;4038;42.612;23.066;2022-12-07T00:06:03;25.50;;;23.40;;
7985;SDS011;4038;42.612;23.066;2022-12-07T00:08:31;25.80;;;23.37;;
7985;SDS011;4038;42.612;23.066;2022-12-07T00:11:00;21.17;;;19.50;;
7985;SDS011;4038;42.612;23.066;2022-12-07T00:13:30;24.40;;;22.20;;
7985;SDS011;4038;42.612;23.066;2022-12-07T00:16:16;23.03;;;21.13;;
7985;SDS011;4038;42.612;23.066;2022-12-07T00:18:43;24.47;;;22.47;;
7985;SDS011;4038;42.612;23.066;2022-12-07T00:21:13;22.93;;;21.03;;
7985;SDS011;4038;42.612;23.066;2022-12-07T00:23:39;22.97;;;21.30;;
7985;SDS011;4038;42.612;23.066;2022-12-07T00:26:06;23.53;;;21.30;;
7985;SDS011;4038;42.612;23.066;2022-12-07T00:28:33;22.70;;;20.90;;
7985;SDS011;4038;42.612;23.066;2022-12-07T00:31:18;23.53;;;21.13;;
7985;SDS011;4038;42.612;23.066;2022-12-07T00:33:45;26.70;;;22.40;;
7985;SDS011;4038;42.612;23.066;2022-12-07T00:36:12;22.60;;;20.47;;
7985;SDS011;4038;42.612;23.066;2022-12-07T00:38:40;25.90;;;23.30;;
7985;SDS011;4038;42.612;23.066;2022-12-07T00:41:08;24.87;;;22.87;;
7985;SDS011;4038;42.612;23.066;2022-12-07T00:43:36;23.30;;;21.40;;
7985;SDS011;4038;42.612;23.066;2022-12-07T00:46:01;26.77;;;23.53;;
7985;SDS011;4038;42.612;23.066;2022-12-07T00:48:27;24.87;;;22.50;;
7985;SDS011;4038;42.612;23.066;2022-12-07T00:51:04;27.23;;;23.53;;
7985;SDS011;4038;42.612;23.066;2022-12-07T00:53:30;25.03;;;23.03;;
7985;SDS011;4038;42.612;23.066;2022-12-07T00:55:58;22.53;;;20.80;;
7985;SDS011;4038;42.612;23.066;2022-12-07T00:58:30;24.33;;;22.33;;
7985;SDS011;4038;42.612;23.066;2022-12-07T01:00:55;24.77;;;22.53;;
7985;SDS011;4038;42.612;23.066;2022-12-07T01:03:26;26.03;;;23.60;;
7985;SDS011;4038;42.612;23.066;2022-12-07T01:05:52;24.57;;;22.63;;
7985;SDS011;4038;42.612;23.066;2022-12-07T01:08:19;24.30;;;22.20;;
7985;SDS011;4038;42.612;23.066;2022-12-07T01:10:46;24.53;;;22.00;;
7985;SDS011;4038;42.612;23.066;2022-12-07T01:13:11;26.47;;;24.03;;
7985;SDS011;4038;42.612;23.066;2022-12-07T01:15:40;26.20;;;23.35;;
7985;SDS011;4038;42.612;23.066;2022-12-07T01:18:08;25.30;;;23.37;;
7985;SDS011;4038;42.612;23.066;2022-12-07T01:20:34;25.30;;;23.10;;
7985;SDS011;4038;42.612;23.066;2022-12-07T01:23:00;25.43;;;23.20;;
7985;SDS011;4038;42.612;23.066;2022-12-07T01:25:25;25.83;;;23.43;;
7985;SDS011;4038;42.612;23.066;2022-12-07T01:27:51;26.70;;;24.03;;
7985;SDS011;4038;42.612;23.066;2022-12-07T01:30:16;25.83;;;23.33;;
7985;SDS011;4038;42.612;23.066;2022-12-07T01:32:42;23.70;;;21.50;;
7985;SDS011;4038;42.612;23.066;2022-12-07T01:35:07;25.00;;;22.57;;
7985;SDS011;4038;42.612;23.066;2022-12-07T01:37:34;25.17;;;22.80;;
7985;SDS011;4038;42.612;23.066;2022-12-07T01:40:01;26.17;;;23.43;;
7985;SDS011;4038;42.612;23.066;2022-12-07T01:42:28;24.77;;;22.20;;
7985;SDS011;4038;42.612;23.066;2022-12-07T01:47:57;23.70;;;21.33;;
7985;SDS011;4038;42.612;23.066;2022-12-07T01:50:24;23.60;;;21.43;;
7985;SDS011;4038;42.612;23.066;2022-12-07T01:52:53;24.33;;;22.13;;
7985;SDS011;4038;42.612;23.066;2022-12-07T01:55:21;24.20;;;21.90;;
7985;SDS011;4038;42.612;23.066;2022-12-07T01:57:48;23.87;;;21.83;;
7985;SDS011;4038;42.612;23.066;2022-12-07T02:00:17;22.63;;;20.92;;
7985;SDS011;4038;42.612;23.066;2022-12-07T02:02:53;22.63;;;20.80;;
7985;SDS011;4038;42.612;23.066;2022-12-07T02:05:24;23.80;;;21.60;;
7985;SDS011;4038;42.612;23.066;2022-12-07T02:07:50;25.05;;;22.60;;
7985;SDS011;4038;42.612;23.066;2022-12-07T02:10:19;23.60;;;21.52;;
7985;SDS011;4038;42.612;23.066;2022-12-07T02:12:53;24.55;;;22.25;;
7985;SDS011;4038;42.612;23.066;2022-12-07T02:15:34;24.83;;;22.30;;
7985;SDS011;4038;42.612;23.066;2022-12-07T02:21:02;25.17;;;22.90;;
7985;SDS011;4038;42.612;23.066;2022-12-07T02:29:10;24.03;;;21.80;;
7985;SDS011;4038;42.612;23.066;2022-12-07T02:31:44;24.92;;;22.88;;
7985;SDS011;4038;42.612;23.066;2022-12-07T02:34:31;26.23;;;23.17;;
7985;SDS011;4038;42.612;23.066;2022-12-07T02:37:04;24.43;;;21.97;;
7985;SDS011;4038;42.612;23.066;2022-12-07T02:39:43;25.63;;;23.42;;
7985;SDS011;4038;42.612;23.066;2022-12-07T02:42:14;24.00;;;21.80;;
7985;SDS011;4038;42.612;23.066;2022-12-07T02:44:42;23.88;;;21.63;;
7985;SDS011;4038;42.612;23.066;2022-12-07T02:47:10;24.33;;;21.58;;
7985;SDS011;4038;42.612;23.066;2022-12-07T02:49:39;23.77;;;21.50;;
7985;SDS011;4038;42.612;23.066;2022-12-07T02:52:05;24.03;;;22.00;;
7985;SDS011;4038;42.612;23.066;2022-12-07T02:54:31;23.65;;;21.40;;
7985;SDS011;4038;42.612;23.066;2022-12-07T03:11:07;33.90;;;24.27;;
7985;SDS011;4038;42.612;23.066;2022-12-07T03:13:54;25.60;;;22.37;;
7985;SDS011;4038;42.612;23.066;2022-12-07T03:16:25;24.20;;;21.90;;
7985;SDS011;4038;42.612;23.066;2022-12-07T03:18:55;24.90;;;22.27;;
7985;SDS011;4038;42.612;23.066;2022-12-07T03:22:00;25.40;;;22.75;;
7985;SDS011;4038;42.612;23.066;2022-12-07T03:24:52;28.92;;;22.77;;
7985;SDS011;4038;42.612;23.066;2022-12-07T03:27:25;23.57;;;21.40;;
7985;SDS011;4038;42.612;23.066;2022-12-07T03:29:57;32.27;;;24.33;;
7985;SDS011;4038;42.612;23.066;2022-12-07T03:32:45;35.72;;;24.23;;
7985;SDS011;4038;42.612;23.066;2022-12-07T03:40:32;29.85;;;23.80;;
7985;SDS011;4038;42.612;23.066;2022-12-07T03:43:08;25.70;;;23.33;;
7985;SDS011;4038;42.612;23.066;2022-12-07T03:45:41;30.90;;;23.90;;
7985;SDS011;4038;42.612;23.066;2022-12-07T03:48:18;31.45;;;23.23;;
7985;SDS011;4038;42.612;23.066;2022-12-07T03:51:08;31.45;;;24.25;;
7985;SDS011;4038;42.612;23.066;2022-12-07T03:54:11;27.10;;;22.80;;
7985;SDS011;4038;42.612;23.066;2022-12-07T03:56:42;25.53;;;22.87;;
7985;SDS011;4038;42.612;23.066;2022-12-07T03:59:10;35.20;;;24.60;;
7985;SDS011;4038;42.612;23.066;2022-12-07T04:01:38;26.65;;;23.42;;
7985;SDS011;4038;42.612;23.066;2022-12-07T04:04:03;27.57;;;24.17;;
7985;SDS011;4038;42.612;23.066;2022-12-07T04:06:29;27.88;;;23.08;;
7985;SDS011;4038;42.612;23.066;2022-12-07T04:08:54;23.48;;;21.58;;
7985;SDS011;4038;42.612;23.066;2022-12-07T04:11:20;24.67;;;21.70;;
7985;SDS011;4038;42.612;23.066;2022-12-07T04:13:45;24.43;;;22.43;;
7985;SDS011;4038;42.612;23.066;2022-12-07T04:16:29;24.48;;;22.35;;
7985;SDS011;4038;42.612;23.066;2022-12-07T04:18:54;25.03;;;22.77;;
7985;SDS011;4038;42.612;23.066;2022-12-07T04:21:20;23.30;;;21.30;;
7985;SDS011;4038;42.612;23.066;2022-12-07T04:23:45;24.70;;;22.43;;
7985;SDS011;4038;42.612;23.066;2022-12-07T04:26:11;24.40;;;22.20;;
7985;SDS011;4038;42.612;23.066;2022-12-07T04:28:36;25.35;;;22.98;;
7985;SDS011;4038;42.612;23.066;2022-12-07T04:31:01;29.83;;;24.87;;
7985;SDS011;4038;42.612;23.066;2022-12-07T04:33:27;32.10;;;26.15;;
7985;SDS011;4038;42.612;23.066;2022-12-07T04:35:52;30.83;;;24.77;;
7985;SDS011;4038;42.612;23.066;2022-12-07T04:38:18;25.33;;;22.10;;
7985;SDS011;4038;42.612;23.066;2022-12-07T04:40:43;28.23;;;24.10;;
7985;SDS011;4038;42.612;23.066;2022-12-07T04:43:08;38.77;;;23.23;;
7985;SDS011;4038;42.612;23.066;2022-12-07T04:45:34;31.53;;;23.57;;
7985;SDS011;4038;42.612;23.066;2022-12-07T04:47:59;23.63;;;21.37;;
7985;SDS011;4038;42.612;23.066;2022-12-07T04:50:25;32.87;;;24.77;;
7985;SDS011;4038;42.612;23.066;2022-12-07T04:52:50;43.93;;;24.57;;
7985;SDS011;4038;42.612;23.066;2022-12-07T04:55:15;36.97;;;23.70;;
7985;SDS011;4038;42.612;23.066;2022-12-07T04:57:41;26.60;;;23.27;;
7985;SDS011;4038;42.612;23.066;2022-12-07T05:00:06;37.17;;;23.80;;
7985;SDS011;4038;42.612;23.066;2022-12-07T05:02:32;24.30;;;22.10;;
7985;SDS011;4038;42.612;23.066;2022-12-07T05:04:58;26.60;;;23.80;;
7985;SDS011;4038;42.612;23.066;2022-12-07T05:07:23;25.30;;;22.43;;
7985;SDS011;4038;42.612;23.066;2022-12-07T05:09:49;24.20;;;21.97;;
7985;SDS011;4038;42.612;23.066;2022-12-07T05:12:14;23.63;;;21.40;;
7985;SDS011;4038;42.612;23.066;2022-12-07T05:14:39;22.50;;;20.60;;
7985;SDS011;4038;42.612;23.066;2022-12-07T05:17:05;22.97;;;20.87;;
7985;SDS011;4038;42.612;23.066;2022-12-07T05:19:30;23.63;;;21.73;;
7985;SDS011;4038;42.612;23.066;2022-12-07T05:21:58;23.13;;;21.35;;
7985;SDS011;4038;42.612;23.066;2022-12-07T05:24:23;22.03;;;20.33;;
7985;SDS011;4038;42.612;23.066;2022-12-07T05:26:49;22.77;;;21.07;;
7985;SDS011;4038;42.612;23.066;2022-12-07T05:29:15;22.33;;;20.63;;
7985;SDS011;4038;42.612;23.066;2022-12-07T05:31:41;23.33;;;21.40;;
7985;SDS011;4038;42.612;23.066;2022-12-07T05:34:07;21.47;;;19.87;;
7985;SDS011;4038;42.612;23.066;2022-12-07T05:36:33;23.50;;;21.63;;
7985;SDS011;4038;42.612;23.066;2022-12-07T05:38:58;23.30;;;21.57;;
7985;SDS011;4038;42.612;23.066;2022-12-07T05:41:24;22.37;;;20.47;;
7985;SDS011;4038;42.612;23.066;2022-12-07T05:44:08;21.97;;;20.23;;
7985;SDS011;4038;42.612;23.066;2022-12-07T05:46:33;24.73;;;22.37;;
7985;SDS011;4038;42.612;23.066;2022-12-07T05:48:59;22.17;;;20.37;;
7985;SDS011;4038;42.612;23.066;2022-12-07T05:51:25;22.03;;;20.27;;
7985;SDS011;4038;42.612;23.066;2022-12-07T05:53:51;24.67;;;22.27;;
7985;SDS011;4038;42.612;23.066;2022-12-07T05:56:16;23.93;;;21.67;;
7985;SDS011;4038;42.612;23.066;2022-12-07T05:58:41;22.80;;;20.80;;
7985;SDS011;4038;42.612;23.066;2022-12-07T06:01:25;32.17;;;22.43;;
7985;SDS011;4038;42.612;23.066;2022-12-07T06:03:51;22.97;;;21.13;;
7985;SDS011;4038;42.612;23.066;2022-12-07T06:06:16;24.47;;;22.37;;
7985;SDS011;4038;42.612;23.066;2022-12-07T06:08:41;21.93;;;20.10;;
7985;SDS011;4038;42.612;23.066;2022-12-07T06:11:07;24.10;;;22.00;;
7985;SDS011;4038;42.612;23.066;2022-12-07T06:13:51;22.27;;;20.57;;
7985;SDS011;4038;42.612;23.066;2022-12-07T06:16:17;24.47;;;22.23;;
7985;SDS011;4038;42.612;23.066;2022-12-07T06:18:42;23.00;;;20.70;;
7985;SDS011;4038;42.612;23.066;2022-12-07T06:21:07;26.10;;;21.63;;
7985;SDS011;4038;42.612;23.066;2022-12-07T06:23:33;25.03;;;22.47;;
7985;SDS011;4038;42.612;23.066;2022-12-07T06:25:58;25.83;;;23.33;;
7985;SDS011;4038;42.612;23.066;2022-12-07T06:28:24;24.23;;;22.17;;
7985;SDS011;4038;42.612;23.066;2022-12-07T06:30:59;28.43;;;24.40;;
7985;SDS011;4038;42.612;23.066;2022-12-07T06:33:26;32.37;;;23.10;;
7985;SDS011;4038;42.612;23.066;2022-12-07T06:35:51;28.97;;;25.67;;
7985;SDS011;4038;42.612;23.066;2022-12-07T06:38:17;25.30;;;22.97;;
7985;SDS011;4038;42.612;23.066;2022-12-07T06:40:43;29.13;;;25.17;;
7985;SDS011;4038;42.612;23.066;2022-12-07T06:43:08;26.63;;;24.13;;
7985;SDS011;4038;42.612;23.066;2022-12-07T06:45:34;35.87;;;26.80;;
7985;SDS011;4038;42.612;23.066;2022-12-07T06:48:01;26.73;;;23.90;;
7985;SDS011;4038;42.612;23.066;2022-12-07T06:50:27;35.03;;;25.63;;
7985;SDS011;4038;42.612;23.066;2022-12-07T06:52:53;41.97;;;27.93;;
7985;SDS011;4038;42.612;23.066;2022-12-07T06:55:18;29.70;;;24.13;;
7985;SDS011;4038;42.612;23.066;2022-12-07T06:57:44;27.73;;;24.97;;
7985;SDS011;4038;42.612;23.066;2022-12-07T07:00:09;28.63;;;24.80;;
7985;SDS011;4038;42.612;23.066;2022-12-07T07:02:35;26.43;;;23.80;;
7985;SDS011;4038;42.612;23.066;2022-12-07T07:05:01;27.67;;;24.97;;
7985;SDS011;4038;42.612;23.066;2022-12-07T07:07:27;27.30;;;24.70;;
7985;SDS011;4038;42.612;23.066;2022-12-07T07:09:52;27.03;;;24.17;;
7985;SDS011;4038;42.612;23.066;2022-12-07T07:12:18;40.43;;;26.10;;
7985;SDS011;4038;42.612;23.066;2022-12-07T07:14:43;30.42;;;24.60;;
7985;SDS011;4038;42.612;23.066;2022-12-07T07:17:09;27.87;;;24.87;;
7985;SDS011;4038;42.612;23.066;2022-12-07T07:19:34;27.48;;;24.95;;
7985;SDS011;4038;42.612;23.066;2022-12-07T07:22:00;28.03;;;23.70;;
7985;SDS011;4038;42.612;23.066;2022-12-07T07:24:25;32.13;;;25.80;;
7985;SDS011;4038;42.612;23.066;2022-12-07T07:26:51;26.47;;;23.77;;
7985;SDS011;4038;42.612;23.066;2022-12-07T07:29:16;31.97;;;25.20;;
7985;SDS011;4038;42.612;23.066;2022-12-07T07:31:42;26.75;;;23.98;;
7985;SDS011;4038;42.612;23.066;2022-12-07T07:34:07;28.10;;;24.60;;
7985;SDS011;4038;42.612;23.066;2022-12-07T07:36:32;27.73;;;25.02;;
7985;SDS011;4038;42.612;23.066;2022-12-07T07:38:58;26.80;;;24.35;;
7985;SDS011;4038;42.612;23.066;2022-12-07T07:41:23;24.87;;;23.07;;
7985;SDS011;4038;42.612;23.066;2022-12-07T07:43:49;26.27;;;24.15;;
7985;SDS011;4038;42.612;23.066;2022-12-07T07:46:14;27.70;;;25.57;;
7985;SDS011;4038;42.612;23.066;2022-12-07T07:48:39;25.30;;;23.20;;
7985;SDS011;4038;42.612;23.066;2022-12-07T07:51:08;25.23;;;22.97;;
7985;SDS011;4038;42.612;23.066;2022-12-07T07:53:33;24.45;;;22.48;;
7985;SDS011;4038;42.612;23.066;2022-12-07T07:55:59;26.40;;;23.98;;
7985;SDS011;4038;42.612;23.066;2022-12-07T07:58:25;25.05;;;22.65;;
7985;SDS011;4038;42.612;23.066;2022-12-07T08:00:52;25.65;;;23.08;;
7985;SDS011;4038;42.612;23.066;2022-12-07T08:03:18;25.05;;;22.83;;
7985;SDS011;4038;42.612;23.066;2022-12-07T08:05:43;25.65;;;23.45;;
7985;SDS011;4038;42.612;23.066;2022-12-07T08:08:09;25.45;;;23.35;;
7985;SDS011;4038;42.612;23.066;2022-12-07T08:10:34;24.55;;;22.52;;
7985;SDS011;4038;42.612;23.066;2022-12-07T08:13:00;25.00;;;22.80;;
7985;SDS011;4038;42.612;23.066;2022-12-07T08:15:42;24.08;;;22.08;;
7985;SDS011;4038;42.612;23.066;2022-12-07T08:18:15;25.55;;;23.65;;
7985;SDS011;4038;42.612;23.066;2022-12-07T08:20:40;27.08;;;24.75;;
7985;SDS011;4038;42.612;23.066;2022-12-07T08:23:07;25.85;;;23.88;;
7985;SDS011;4038;42.612;23.066;2022-12-07T08:25:34;26.80;;;23.95;;
7985;SDS011;4038;42.612;23.066;2022-12-07T08:27:59;25.98;;;23.98;;
7985;SDS011;4038;42.612;23.066;2022-12-07T08:30:26;25.10;;;23.23;;
7985;SDS011;4038;42.612;23.066;2022-12-07T08:32:51;24.08;;;22.27;;
7985;SDS011;4038;42.612;23.066;2022-12-07T08:35:17;25.10;;;22.73;;
7985;SDS011;4038;42.612;23.066;2022-12-07T08:37:42;24.40;;;22.40;;
7985;SDS011;4038;42.612;23.066;2022-12-07T08:40:08;26.33;;;24.23;;
7985;SDS011;4038;42.612;23.066;2022-12-07T08:42:35;26.33;;;23.88;;
7985;SDS011;4038;42.612;23.066;2022-12-07T08:45:12;25.52;;;23.52;;
7985;SDS011;4038;42.612;23.066;2022-12-07T08:47:43;24.25;;;22.55;;
7985;SDS011;4038;42.612;23.066;2022-12-07T08:50:13;24.40;;;22.50;;
7985;SDS011;4038;42.612;23.066;2022-12-07T08:52:40;25.17;;;23.38;;
7985;SDS011;4038;42.612;23.066;2022-12-07T08:55:07;24.83;;;23.02;;
7985;SDS011;4038;42.612;23.066;2022-12-07T08:57:34;26.80;;;24.88;;
7985;SDS011;4038;42.612;23.066;2022-12-07T09:00:01;27.63;;;25.50;;
7985;SDS011;4038;42.612;23.066;2022-12-07T09:02:28;26.90;;;24.77;;
7985;SDS011;4038;42.612;23.066;2022-12-07T09:04:53;26.95;;;24.88;;
7985;SDS011;4038;42.612;23.066;2022-12-07T09:07:19;25.15;;;23.17;;
7985;SDS011;4038;42.612;23.066;2022-12-07T09:09:44;25.63;;;23.58;;
7985;SDS011;4038;42.612;23.066;2022-12-07T09:12:09;27.65;;;25.35;;
7985;SDS011;4038;42.612;23.066;2022-12-07T09:14:35;27.42;;;25.52;;
7985;SDS011;4038;42.612;23.066;2022-12-07T09:17:07;25.48;;;23.58;;
7985;SDS011;4038;42.612;23.066;2022-12-07T09:19:34;26.25;;;24.38;;
7985;SDS011;4038;42.612;23.066;2022-12-07T09:22:00;26.33;;;24.33;;
7985;SDS011;4038;42.612;23.066;2022-12-07T09:24:25;27.13;;;25.13;;
7985;SDS011;4038;42.612;23.066;2022-12-07T09:26:51;24.70;;;22.77;;
7985;SDS011;4038;42.612;23.066;2022-12-07T09:29:16;25.17;;;23.23;;
7985;SDS011;4038;42.612;23.066;2022-12-07T09:31:42;25.55;;;23.50;;
7985;SDS011;4038;42.612;23.066;2022-12-07T09:34:07;26.63;;;24.48;;
7985;SDS011;4038;42.612;23.066;2022-12-07T09:36:32;25.00;;;23.08;;
7985;SDS011;4038;42.612;23.066;2022-12-07T09:38:58;23.38;;;21.67;;
7985;SDS011;4038;42.612;23.066;2022-12-07T09:41:24;25.77;;;23.80;;
7985;SDS011;4038;42.612;23.066;2022-12-07T09:43:52;26.63;;;24.73;;
7985;SDS011;4038;42.612;23.066;2022-12-07T09:46:22;26.70;;;24.55;;
7985;SDS011;4038;42.612;23.066;2022-12-07T09:48:48;26.60;;;24.70;;
7985;SDS011;4038;42.612;23.066;2022-12-07T09:51:22;29.10;;;26.80;;
7985;SDS011;4038;42.612;23.066;2022-12-07T09:53:49;28.15;;;25.92;;
7985;SDS011;4038;42.612;23.066;2022-12-07T09:56:16;26.98;;;24.83;;
7985;SDS011;4038;42.612;23.066;2022-12-07T09:58:43;26.83;;;24.83;;
7985;SDS011;4038;42.612;23.066;2022-12-07T10:01:11;25.95;;;23.50;;
7985;SDS011;4038;42.612;23.066;2022-12-07T10:03:39;26.65;;;24.55;;
7985;SDS011;4038;42.612;23.066;2022-12-07T10:06:10;26.10;;;24.00;;
7985;SDS011;4038;42.612;23.066;2022-12-07T10:08:37;26.65;;;24.60;;
7985;SDS011;4038;42.612;23.066;2022-12-07T10:11:03;25.60;;;23.80;;
7985;SDS011;4038;42.612;23.066;2022-12-07T10:13:35;27.00;;;24.83;;
7985;SDS011;4038;42.612;23.066;2022-12-07T10:16:01;27.38;;;25.42;;
7985;SDS011;4038;42.612;23.066;2022-12-07T10:18:28;27.50;;;25.15;;
7985;SDS011;4038;42.612;23.066;2022-12-07T10:21:02;29.00;;;26.40;;
7985;SDS011;4038;42.612;23.066;2022-12-07T10:23:35;25.45;;;23.60;;
7985;SDS011;4038;42.612;23.066;2022-12-07T10:31:38;24.38;;;22.40;;
7985;SDS011;4038;42.612;23.066;2022-12-07T10:34:12;25.77;;;23.85;;
7985;SDS011;4038;42.612;23.066;2022-12-07T10:36:47;25.88;;;23.92;;
7985;SDS011;4038;42.612;23.066;2022-12-07T10:39:19;24.70;;;22.80;;
7985;SDS011;4038;42.612;23.066;2022-12-07T10:41:56;24.77;;;22.83;;
7985;SDS011;4038;42.612;23.066;2022-12-07T10:44:29;27.60;;;25.00;;
7985;SDS011;4038;42.612;23.066;2022-12-07T10:47:01;26.13;;;24.05;;
7985;SDS011;4038;42.612;23.066;2022-12-07T10:50:01;26.52;;;24.45;;
7985;SDS011;4038;42.612;23.066;2022-12-07T10:52:45;25.75;;;23.75;;
7985;SDS011;4038;42.612;23.066;2022-12-07T11:09:33;25.08;;;23.27;;
7985;SDS011;4038;42.612;23.066;2022-12-07T11:12:11;24.05;;;22.20;;
7985;SDS011;4038;42.612;23.066;2022-12-07T11:14:55;24.00;;;22.20;;
7985;SDS011;4038;42.612;23.066;2022-12-07T11:23:10;24.92;;;23.13;;
7985;SDS011;4038;42.612;23.066;2022-12-07T11:25:53;24.17;;;22.35;;
7985;SDS011;4038;42.612;23.066;2022-12-07T11:28:51;23.45;;;21.70;;
7985;SDS011;4038;42.612;23.066;2022-12-07T11:34:30;25.27;;;23.08;;
7985;SDS011;4038;42.612;23.066;2022-12-07T11:36:59;25.88;;;24.08;;
7985;SDS011;4038;42.612;23.066;2022-12-07T11:39:43;25.17;;;23.27;;
7985;SDS011;4038;42.612;23.066;2022-12-07T11:42:16;23.92;;;22.23;;
7985;SDS011;4038;42.612;23.066;2022-12-07T11:44:59;24.17;;;22.17;;
7985;SDS011;4038;42.612;23.066;2022-12-07T11:47:45;24.63;;;22.63;;
7985;SDS011;4038;42.612;23.066;2022-12-07T11:50:36;25.17;;;23.00;;
7985;SDS011;4038;42.612;23.066;2022-12-07T12:04:48;25.52;;;23.48;;
7985;SDS011;4038;42.612;23.066;2022-12-07T12:07:27;25.48;;;23.77;;
7985;SDS011;4038;42.612;23.066;2022-12-07T12:20:50;26.50;;;24.50;;
7985;SDS011;4038;42.612;23.066;2022-12-07T12:25:57;25.08;;;23.27;;
7985;SDS011;4038;42.612;23.066;2022-12-07T12:31:15;24.63;;;22.83;;
7985;SDS011;4038;42.612;23.066;2022-12-07T12:33:46;25.58;;;23.77;;
7985;SDS011;4038;42.612;23.066;2022-12-07T12:36:21;25.25;;;23.23;;
7985;SDS011;4038;42.612;23.066;2022-12-07T12:46:59;25.48;;;23.67;;
7985;SDS011;4038;42.612;23.066;2022-12-07T12:51:53;25.50;;;23.60;;
7985;SDS011;4038;42.612;23.066;2022-12-07T13:15:38;25.88;;;23.92;;
7985;SDS011;4038;42.612;23.066;2022-12-07T13:26:12;24.92;;;22.95;;
7985;SDS011;4038;42.612;23.066;2022-12-07T13:28:40;24.58;;;22.75;;
7985;SDS011;4038;42.612;23.066;2022-12-07T13:31:27;24.98;;;22.98;;
7985;SDS011;4038;42.612;23.066;2022-12-07T13:33:55;24.33;;;22.52;;
7985;SDS011;4038;42.612;23.066;2022-12-07T13:36:30;25.23;;;23.13;;
7985;SDS011;4038;42.612;23.066;2022-12-07T13:39:19;25.88;;;23.98;;
7985;SDS011;4038;42.612;23.066;2022-12-07T13:41:51;24.50;;;22.38;;
7985;SDS011;4038;42.612;23.066;2022-12-07T13:44:22;24.90;;;22.83;;
7985;SDS011;4038;42.612;23.066;2022-12-07T13:49:18;26.17;;;23.95;;
7985;SDS011;4038;42.612;23.066;2022-12-07T13:51:52;24.70;;;22.90;;
7985;SDS011;4038;42.612;23.066;2022-12-07T13:54:18;25.08;;;23.13;;
7985;SDS011;4038;42.612;23.066;2022-12-07T13:56:47;25.50;;;23.60;;
7985;SDS011;4038;42.612;23.066;2022-12-07T13:59:17;25.48;;;23.35;;
7985;SDS011;4038;42.612;23.066;2022-12-07T14:01:45;25.67;;;23.73;;
7985;SDS011;4038;42.612;23.066;2022-12-07T14:07:18;24.67;;;22.50;;
7985;SDS011;4038;42.612;23.066;2022-12-07T14:09:53;25.75;;;23.67;;
7985;SDS011;4038;42.612;23.066;2022-12-07T14:12:19;26.75;;;24.70;;
7985;SDS011;4038;42.612;23.066;2022-12-07T14:14:47;25.02;;;23.13;;
7985;SDS011;4038;42.612;23.066;2022-12-07T14:17:18;25.13;;;22.85;;
7985;SDS011;4038;42.612;23.066;2022-12-07T14:19:46;26.00;;;23.50;;
7985;SDS011;4038;42.612;23.066;2022-12-07T14:22:26;29.92;;;27.00;;
7985;SDS011;4038;42.612;23.066;2022-12-07T14:27:30;24.73;;;22.73;;
7985;SDS011;4038;42.612;23.066;2022-12-07T14:29:59;26.88;;;24.50;;
7985;SDS011;4038;42.612;23.066;2022-12-07T14:32:29;26.25;;;23.92;;
7985;SDS011;4038;42.612;23.066;2022-12-07T14:34:56;26.20;;;23.67;;
7985;SDS011;4038;42.612;23.066;2022-12-07T14:37:28;29.60;;;26.50;;
7985;SDS011;4038;42.612;23.066;2022-12-07T14:39:55;26.98;;;24.48;;
7985;SDS011;4038;42.612;23.066;2022-12-07T14:42:21;28.25;;;25.60;;
7985;SDS011;4038;42.612;23.066;2022-12-07T14:44:49;29.35;;;26.85;;
7985;SDS011;4038;42.612;23.066;2022-12-07T14:47:14;27.52;;;24.58;;
7985;SDS011;4038;42.612;23.066;2022-12-07T14:49:40;28.50;;;25.65;;
7985;SDS011;4038;42.612;23.066;2022-12-07T14:52:07;33.88;;;29.83;;
7985;SDS011;4038;42.612;23.066;2022-12-07T14:54:40;33.88;;;30.17;;
7985;SDS011;4038;42.612;23.066;2022-12-07T14:57:07;38.75;;;30.98;;
7985;SDS011;4038;42.612;23.066;2022-12-07T14:59:35;46.58;;;36.97;;
7985;SDS011;4038;42.612;23.066;2022-12-07T15:02:02;32.92;;;29.63;;
7985;SDS011;4038;42.612;23.066;2022-12-07T15:04:28;27.10;;;24.80;;
7985;SDS011;4038;42.612;23.066;2022-12-07T15:07:01;25.55;;;23.25;;
7985;SDS011;4038;42.612;23.066;2022-12-07T15:09:29;27.45;;;24.63;;
7985;SDS011;4038;42.612;23.066;2022-12-07T15:11:57;26.05;;;23.88;;
7985;SDS011;4038;42.612;23.066;2022-12-07T15:14:22;27.02;;;24.52;;
7985;SDS011;4038;42.612;23.066;2022-12-07T15:16:47;26.23;;;23.80;;
7985;SDS011;4038;42.612;23.066;2022-12-07T15:19:14;25.67;;;23.33;;
7985;SDS011;4038;42.612;23.066;2022-12-07T15:21:41;27.30;;;24.50;;
7985;SDS011;4038;42.612;23.066;2022-12-07T15:24:08;27.40;;;25.02;;
7985;SDS011;4038;42.612;23.066;2022-12-07T15:26:34;25.67;;;23.10;;
7985;SDS011;4038;42.612;23.066;2022-12-07T15:29:00;25.85;;;22.88;;
7985;SDS011;4038;42.612;23.066;2022-12-07T15:31:25;27.27;;;24.67;;
7985;SDS011;4038;42.612;23.066;2022-12-07T15:33:51;31.35;;;25.15;;
7985;SDS011;4038;42.612;23.066;2022-12-07T15:36:21;26.08;;;23.50;;
7985;SDS011;4038;42.612;23.066;2022-12-07T15:38:48;26.30;;;23.83;;
7985;SDS011;4038;42.612;23.066;2022-12-07T15:41:14;28.17;;;24.17;;
7985;SDS011;4038;42.612;23.066;2022-12-07T15:43:40;29.40;;;26.48;;
7985;SDS011;4038;42.612;23.066;2022-12-07T15:46:29;26.63;;;23.98;;
7985;SDS011;4038;42.612;23.066;2022-12-07T15:48:57;30.42;;;24.50;;
7985;SDS011;4038;42.612;23.066;2022-12-07T15:51:23;27.50;;;24.67;;
7985;SDS011;4038;42.612;23.066;2022-12-07T15:53:49;34.67;;;26.33;;
7985;SDS011;4038;42.612;23.066;2022-12-07T15:56:14;27.20;;;24.48;;
7985;SDS011;4038;42.612;23.066;2022-12-07T15:58:39;25.40;;;23.13;;
7985;SDS011;4038;42.612;23.066;2022-12-07T16:01:09;25.98;;;23.58;;
7985;SDS011;4038;42.612;23.066;2022-12-07T16:03:39;27.70;;;25.30;;
7985;SDS011;4038;42.612;23.066;2022-12-07T16:06:04;30.10;;;24.85;;
7985;SDS011;4038;42.612;23.066;2022-12-07T16:08:30;30.85;;;25.10;;
7985;SDS011;4038;42.612;23.066;2022-12-07T16:10:55;28.42;;;25.45;;
7985;SDS011;4038;42.612;23.066;2022-12-07T16:13:21;29.20;;;26.33;;
7985;SDS011;4038;42.612;23.066;2022-12-07T16:15:46;30.77;;;27.67;;
7985;SDS011;4038;42.612;23.066;2022-12-07T16:18:12;27.60;;;25.30;;
7985;SDS011;4038;42.612;23.066;2022-12-07T16:20:43;30.02;;;27.13;;
7985;SDS011;4038;42.612;23.066;2022-12-07T16:23:15;28.63;;;24.88;;
7985;SDS011;4038;42.612;23.066;2022-12-07T16:25:41;29.58;;;26.75;;
7985;SDS011;4038;42.612;23.066;2022-12-07T16:28:08;28.52;;;25.60;;
7985;SDS011;4038;42.612;23.066;2022-12-07T16:30:34;28.67;;;25.52;;
7985;SDS011;4038;42.612;23.066;2022-12-07T16:32:59;30.23;;;27.45;;
7985;SDS011;4038;42.612;23.066;2022-12-07T16:35:25;29.95;;;26.90;;
7985;SDS011;4038;42.612;23.066;2022-12-07T16:37:50;29.08;;;26.25;;
7985;SDS011;4038;42.612;23.066;2022-12-07T16:40:15;27.13;;;24.60;;
7985;SDS011;4038;42.612;23.066;2022-12-07T16:42:41;28.83;;;25.95;;
7985;SDS011;4038;42.612;23.066;2022-12-07T16:45:06;28.48;;;25.80;;
7985;SDS011;4038;42.612;23.066;2022-12-07T16:47:32;32.78;;;29.48;;
7985;SDS011;4038;42.612;23.066;2022-12-07T16:49:58;30.95;;;27.65;;
7985;SDS011;4038;42.612;23.066;2022-12-07T16:52:23;31.63;;;27.58;;
7985;SDS011;4038;42.612;23.066;2022-12-07T16:54:49;30.55;;;27.50;;
7985;SDS011;4038;42.612;23.066;2022-12-07T16:57:15;29.85;;;27.05;;
7985;SDS011;4038;42.612;23.066;2022-12-07T16:59:41;29.80;;;27.17;;